createdAt,value
2022-08-03T00:00:01.382Z,87.34
2022-08-03T00:03:51.103Z,87.27
2022-08-03T00:07:21.123Z,87.38
2022-08-03T00:13:56.096Z,87.42
2022-08-03T00:17:25.712Z,87.53
2022-08-03T00:20:45.642Z,87.52
2022-08-03T00:24:18.016Z,87.56
2022-08-03T00:27:28.056Z,87.52
2022-08-03T00:30:46.818Z,87.73
2022-08-03T00:34:07.191Z,87.64
2022-08-03T00:37:02.838Z,87.78
2022-08-03T00:39:54.364Z,87.88
2022-08-03T00:43:14.474Z,87.88
2022-08-03T00:46:26.203Z,87.81
2022-08-03T00:49:37.872Z,87.77
2022-08-03T00:52:47.544Z,87.94
2022-08-03T00:55:45.626Z,87.96
2022-08-03T00:59:02.515Z,87.94
2022-08-03T01:02:07.150Z,87.96
2022-08-03T01:05:19.981Z,87.84
2022-08-03T01:08:31.849Z,87.94
2022-08-03T01:12:01.681Z,87.94
2022-08-03T01:15:17.302Z,87.90
2022-08-03T01:18:52.814Z,87.93
2022-08-03T01:22:04.402Z,87.96
2022-08-03T01:25:44.537Z,88.17
2022-08-03T01:29:00.796Z,88.09
2022-08-03T01:32:53.429Z,88.11
2022-08-03T01:35:52.537Z,88.30
2022-08-03T01:38:52.704Z,88.36
2022-08-03T01:42:12.361Z,88.39
2022-08-03T01:45:34.617Z,88.35
2022-08-03T01:49:09.189Z,88.39
2022-08-03T01:52:14.579Z,88.38
2022-08-03T01:55:28.293Z,88.45
2022-08-03T01:58:40.422Z,88.50
2022-08-03T02:01:26.437Z,88.50
2022-08-03T02:04:50.413Z,88.50
2022-08-03T02:08:01.124Z,88.51
2022-08-03T02:10:59.414Z,88.51
2022-08-03T02:13:56.253Z,88.48
2022-08-03T02:17:00.535Z,88.59
2022-08-03T02:20:00.669Z,88.51
2022-08-03T02:22:46.153Z,88.61
2022-08-03T02:25:25.010Z,88.65
2022-08-03T02:28:11.487Z,88.66
2022-08-03T02:30:58.219Z,88.66
2022-08-03T02:33:53.887Z,88.66
2022-08-03T02:36:38.324Z,88.59
2022-08-03T02:39:26.972Z,88.51
2022-08-03T02:42:12.203Z,88.50
2022-08-03T02:45:08.228Z,88.61
2022-08-03T02:47:54.482Z,88.53
2022-08-03T02:50:36.583Z,88.52
2022-08-03T02:53:34.416Z,88.56
2022-08-03T02:56:12.810Z,88.66
2022-08-03T02:59:01.922Z,88.65
2022-08-03T03:01:47.525Z,88.66
2022-08-03T03:04:25.699Z,88.69
2022-08-03T03:07:13.283Z,88.65
2022-08-03T03:09:55.257Z,88.71
2022-08-03T03:12:39.988Z,88.78
2022-08-03T03:15:22.995Z,88.85
2022-08-03T03:18:00.657Z,88.85
2022-08-03T03:20:44.880Z,88.92
2022-08-03T03:23:29.405Z,88.93
2022-08-03T03:26:06.091Z,88.95
2022-08-03T03:28:45.231Z,89.06
2022-08-03T03:31:19.133Z,89.12
2022-08-03T03:33:55.944Z,89.15
2022-08-03T03:36:41.416Z,89.16
2022-08-03T03:39:26.868Z,89.22
2022-08-03T03:42:09.706Z,89.22
2022-08-03T03:45:01.534Z,89.22
2022-08-03T03:47:39.863Z,89.31
2022-08-03T03:50:41.819Z,89.43
2022-08-03T03:53:30.345Z,89.47
2022-08-03T03:56:07.704Z,89.46
2022-08-03T03:58:54.085Z,89.53
2022-08-03T04:01:32.484Z,89.52
2022-08-03T04:04:31.083Z,89.64
2022-08-03T04:07:30.903Z,89.76
2022-08-03T04:10:26.670Z,89.76
2022-08-03T04:13:12.473Z,89.78
2022-08-03T04:15:52.999Z,89.89
2022-08-03T04:18:48.440Z,89.82
2022-08-03T04:21:40.425Z,89.86
2022-08-03T04:24:36.589Z,89.84
2022-08-03T04:27:31.628Z,89.90
2022-08-03T04:30:13.768Z,89.93
2022-08-03T04:33:06.951Z,89.92
2022-08-03T04:36:01.228Z,89.91
2022-08-03T04:38:59.519Z,89.99
2022-08-03T04:42:07.693Z,89.97
2022-08-03T04:44:39.805Z,89.94
2022-08-03T04:47:27.461Z,89.89
2022-08-03T04:50:21.786Z,89.82
2022-08-03T04:53:11.746Z,89.82
2022-08-03T04:55:58.224Z,89.70
2022-08-03T04:58:38.302Z,89.61
2022-08-03T05:01:20.768Z,89.55
2022-08-03T05:04:00.945Z,89.53
2022-08-03T05:06:47.838Z,89.58
2022-08-03T05:09:50.097Z,89.61
2022-08-03T05:12:20.537Z,89.47
2022-08-03T05:14:56.977Z,89.33
2022-08-03T05:17:34.093Z,89.29
2022-08-03T05:20:11.682Z,89.25
2022-08-03T05:23:05.301Z,89.19
2022-08-03T05:25:49.589Z,89.25
2022-08-03T05:28:31.186Z,89.03
2022-08-03T05:31:13.421Z,88.92
2022-08-03T05:34:04.514Z,88.80
2022-08-03T05:36:57.241Z,88.76
2022-08-03T05:39:45.651Z,88.67
2022-08-03T05:42:39.439Z,88.61
2022-08-03T05:45:36.398Z,88.55
2022-08-03T05:48:29.807Z,88.57
2022-08-03T05:51:14.747Z,88.55
2022-08-03T05:54:13.424Z,88.58
2022-08-03T05:56:52.793Z,88.46
2022-08-03T05:59:38.056Z,88.48
2022-08-03T06:02:09.757Z,88.43
2022-08-03T06:04:45.559Z,88.14
2022-08-03T06:07:27.147Z,88.06
2022-08-03T06:10:36.029Z,87.95
2022-08-03T06:12:59.442Z,87.83
2022-08-03T06:15:33.307Z,87.58
2022-08-03T06:18:17.304Z,87.48
2022-08-03T06:20:53.199Z,87.49
2022-08-03T06:23:54.532Z,86.97
2022-08-03T06:26:29.962Z,86.17
2022-08-03T06:29:00.707Z,86.17
2022-08-03T06:31:37.143Z,86.01
2022-08-03T06:34:30.627Z,85.73
2022-08-03T06:37:03.524Z,85.42
2022-08-03T06:39:34.461Z,85.36
2022-08-03T06:42:07.843Z,85.06
2022-08-03T06:44:43.873Z,84.10
2022-08-03T06:47:20.052Z,83.66
2022-08-03T06:50:12.652Z,82.89
2022-08-03T06:52:41.528Z,82.79
2022-08-03T06:55:15.684Z,82.82
2022-08-03T06:57:53.751Z,82.06
2022-08-03T07:00:27.025Z,81.70
2022-08-03T07:03:00.878Z,81.24
2022-08-03T07:05:35.327Z,81.24
2022-08-03T07:08:08.767Z,80.14
2022-08-03T07:10:39.079Z,79.42
2022-08-03T07:13:12.403Z,78.93
2022-08-03T07:15:55.583Z,77.28
2022-08-03T07:18:29.601Z,77.06
2022-08-03T07:21:09.120Z,77.92
2022-08-03T07:23:42.903Z,78.22
2022-08-03T07:26:13.912Z,77.82
2022-08-03T07:28:46.730Z,76.89
2022-08-03T07:31:19.257Z,75.73
2022-08-03T07:33:50.165Z,75.26
2022-08-03T07:36:24.984Z,74.73
2022-08-03T07:38:58.731Z,73.72
2022-08-03T07:41:29.580Z,71.88
2022-08-03T07:44:03.879Z,71.56
2022-08-03T07:46:37.626Z,71.53
2022-08-03T07:49:11.575Z,71.09
2022-08-03T07:51:42.795Z,71.33
2022-08-03T07:54:16.548Z,71.29
2022-08-03T07:56:50.851Z,70.40
2022-08-03T07:59:27.596Z,68.53
2022-08-03T08:02:01.575Z,67.18
2022-08-03T08:04:32.086Z,67.32
2022-08-03T08:07:05.770Z,68.53
2022-08-03T08:09:40.268Z,69.05
2022-08-03T08:12:15.614Z,68.94
2022-08-03T08:14:49.621Z,69.32
2022-08-03T08:17:20.467Z,69.56
2022-08-03T08:19:54.539Z,67.06
2022-08-03T08:22:32.451Z,66.40
2022-08-03T08:25:42.644Z,66.39
2022-08-03T08:29:00.049Z,65.36
2022-08-03T08:32:19.935Z,66.00
2022-08-03T08:35:39.819Z,67.52
2022-08-03T08:39:08.905Z,68.59
2022-08-03T08:42:37.796Z,69.16
2022-08-03T08:46:25.800Z,67.52
2022-08-03T09:24:02.240Z,59.04
2022-08-03T10:11:40.385Z,52.61
2022-08-03T10:15:10.090Z,52.97
2022-08-03T10:18:57.146Z,54.05
2022-08-03T10:22:00.870Z,51.13
2022-08-03T10:25:33.347Z,52.01
2022-08-03T10:29:02.089Z,52.68
2022-08-03T10:32:17.343Z,51.89
2022-08-03T10:35:49.477Z,52.25
2022-08-03T10:50:14.182Z,53.31
2022-08-03T10:53:54.900Z,51.34
2022-08-03T10:57:31.881Z,49.53
2022-08-03T11:01:02.966Z,51.62
2022-08-03T11:04:37.721Z,54.00
2022-08-03T11:08:18.301Z,53.68
2022-08-03T11:11:47.690Z,51.41
2022-08-03T11:14:40.737Z,51.66
2022-08-03T11:18:11.132Z,51.57
2022-08-03T11:21:38.855Z,48.87
2022-08-03T11:25:53.686Z,51.99
2022-08-03T11:28:25.385Z,53.74
2022-08-03T11:31:48.858Z,54.20
2022-08-03T11:35:14.833Z,55.41
2022-08-03T11:38:25.138Z,55.67
2022-08-03T11:41:16.865Z,56.02
2022-08-03T11:44:32.468Z,56.05
2022-08-03T11:47:24.707Z,55.36
2022-08-03T11:50:33.103Z,55.89
2022-08-03T11:54:01.879Z,54.82
2022-08-03T11:59:16.885Z,54.72
2022-08-03T12:04:22.865Z,54.61
2022-08-03T12:08:03.905Z,54.22
2022-08-03T12:11:26.161Z,52.57
2022-08-03T12:14:54.839Z,53.41
2022-08-03T12:18:23.679Z,52.60
2022-08-03T12:21:24.757Z,53.12
2022-08-03T12:24:53.291Z,53.07
2022-08-03T12:28:28.213Z,50.45
2022-08-03T12:32:06.625Z,52.16
2022-08-03T12:35:42.025Z,52.92
2022-08-03T12:38:58.423Z,50.37
2022-08-03T12:42:19.845Z,50.27
2022-08-03T12:45:34.788Z,52.05
2022-08-03T12:48:44.020Z,52.24
2022-08-03T12:51:32.488Z,52.07
2022-08-03T12:54:51.412Z,50.19
2022-08-03T14:14:14.844Z,49.15
2022-08-03T14:17:18.128Z,48.63
2022-08-03T14:19:55.331Z,48.02
2022-08-03T14:23:26.412Z,48.81
2022-08-03T14:26:45.855Z,47.22
2022-08-03T14:34:10.482Z,49.37
2022-08-03T14:37:23.122Z,49.19
2022-08-03T14:40:41.710Z,48.04
2022-08-03T14:44:08.885Z,47.69
2022-08-03T14:47:20.248Z,48.06
2022-08-03T14:50:37.432Z,48.91
2022-08-03T14:52:59.669Z,49.72
2022-08-03T14:56:33.539Z,49.84
2022-08-03T15:00:02.155Z,50.95
2022-08-03T15:03:31.890Z,52.17
2022-08-03T15:14:13.557Z,49.20
2022-08-03T15:17:42.864Z,47.74
2022-08-03T15:21:01.996Z,46.11
2022-08-03T15:24:21.792Z,46.13
2022-08-03T15:28:02.932Z,45.32
2022-08-03T15:31:33.117Z,46.63
2022-08-03T15:35:01.757Z,47.71
2022-08-03T15:38:30.294Z,48.42
2022-08-03T15:41:58.776Z,47.45
2022-08-03T15:45:27.879Z,47.45
2022-08-03T15:49:05.193Z,47.74
2022-08-03T15:55:36.102Z,47.90
2022-08-03T15:59:04.450Z,48.38
2022-08-03T16:32:11.343Z,47.69
2022-08-03T17:18:49.016Z,51.22
2022-08-03T18:16:24.051Z,65.25
2022-08-03T18:22:38.600Z,65.99
2022-08-03T18:25:50.199Z,66.47
2022-08-03T18:29:14.338Z,67.04
2022-08-03T18:32:37.478Z,67.49
2022-08-03T18:39:21.052Z,68.62
2022-08-03T18:45:55.875Z,69.37
2022-08-03T18:48:48.345Z,69.73
2022-08-03T18:51:52.530Z,69.23
2022-08-03T18:55:02.482Z,70.05
2022-08-03T18:58:03.608Z,70.34
2022-08-03T19:01:59.114Z,70.58
2022-08-03T19:04:58.285Z,70.56
2022-08-03T19:08:23.134Z,70.87
2022-08-03T19:11:17.777Z,71.14
2022-08-03T19:14:42.629Z,71.73
2022-08-03T20:12:39.362Z,77.00
2022-08-03T20:33:27.890Z,78.85
2022-08-03T20:37:04.086Z,79.07
2022-08-03T20:40:31.784Z,79.19
2022-08-03T21:14:39.759Z,80.89
2022-08-03T21:18:09.529Z,80.79
2022-08-03T21:21:38.716Z,80.77
2022-08-03T21:25:07.677Z,80.92
2022-08-03T21:28:37.222Z,80.91
2022-08-03T21:32:05.747Z,80.98
2022-08-03T21:35:36.223Z,81.14
2022-08-03T21:39:04.911Z,81.22
2022-08-03T21:42:33.707Z,81.17
2022-08-03T21:46:02.351Z,81.38
2022-08-03T21:50:02.630Z,81.53
2022-08-03T21:53:23.859Z,81.65
2022-08-03T21:57:02.560Z,81.68
2022-08-03T22:00:31.270Z,81.81
2022-08-03T22:03:59.937Z,81.94
2022-08-03T22:07:30.808Z,82.02
2022-08-03T22:10:59.686Z,82.38
2022-08-03T22:14:33.311Z,82.18
2022-08-03T22:18:01.956Z,82.09
2022-08-03T22:21:36.415Z,82.15
2022-08-03T22:25:05.322Z,82.35
2022-08-03T22:28:33.893Z,82.02
2022-08-03T22:32:02.335Z,82.02
2022-08-03T22:35:31.624Z,81.87
2022-08-03T22:39:00.311Z,81.98
2022-08-03T22:42:29.291Z,81.80
2022-08-03T22:46:08.999Z,81.64
2022-08-03T22:49:38.595Z,81.49
2022-08-03T22:53:07.333Z,81.22
2022-08-03T22:56:37.278Z,81.36
2022-08-03T23:00:07.742Z,80.99
2022-08-03T23:03:59.980Z,80.82
2022-08-03T23:07:26.666Z,80.96
2022-08-03T23:10:55.418Z,80.94
2022-08-03T23:14:24.126Z,80.89
2022-08-03T23:21:53.909Z,80.81
2022-08-03T23:25:28.613Z,80.78
2022-08-03T23:28:57.293Z,80.79
2022-08-03T23:32:25.928Z,80.65
2022-08-03T23:36:28.725Z,80.56
2022-08-03T23:39:41.841Z,80.29
2022-08-03T23:43:14.055Z,79.97
2022-08-03T23:46:49.765Z,79.20
2022-08-03T23:50:18.361Z,79.10
2022-08-03T23:54:01.936Z,78.97
2022-08-03T23:57:40.043Z,78.71
